createdAt,value
2019-03-03T00:01:10.949Z,6.28
2019-03-03T00:02:46.913Z,6.24
2019-03-03T00:04:24.122Z,6.24
2019-03-03T00:06:02.994Z,6.23
2019-03-03T00:07:41.038Z,6.29
2019-03-03T00:09:19.864Z,6.21
2019-03-03T00:11:03.123Z,6.22
2019-03-03T00:12:38.379Z,6.22
2019-03-03T00:14:15.808Z,6.19
2019-03-03T00:15:52.744Z,6.17
2019-03-03T00:17:29.259Z,6.19
2019-03-03T00:19:04.700Z,6.17
2019-03-03T00:20:40.079Z,6.24
2019-03-03T00:22:15.710Z,6.19
2019-03-03T00:23:54.163Z,6.17
2019-03-03T00:25:33.447Z,6.15
2019-03-03T00:27:12.394Z,6.17
2019-03-03T00:28:56.115Z,6.16
2019-03-03T00:30:31.910Z,6.14
2019-03-03T00:32:13.563Z,6.08
2019-03-03T00:33:49.057Z,6.02
2019-03-03T00:35:27.082Z,6.00
2019-03-03T00:37:35.660Z,5.98
2019-03-03T00:39:19.962Z,5.96
2019-03-03T00:41:32.320Z,5.94
2019-03-03T00:43:23.704Z,5.92
2019-03-03T00:45:24.339Z,5.89
2019-03-03T00:47:34.838Z,5.84
2019-03-03T00:49:34.470Z,5.76
2019-03-03T00:51:29.184Z,5.71
2019-03-03T00:53:31.688Z,5.71
2019-03-03T00:55:26.878Z,5.70
2019-03-03T00:57:16.881Z,5.68
2019-03-03T00:59:05.922Z,5.64
2019-03-03T01:00:51.031Z,5.62
2019-03-03T01:02:46.769Z,5.63
2019-03-03T01:04:30.372Z,5.57
2019-03-03T01:06:35.590Z,5.58
2019-03-03T01:08:38.065Z,5.54
2019-03-03T01:10:39.455Z,5.55
2019-03-03T01:12:28.220Z,5.53
2019-03-03T01:14:23.871Z,5.50
2019-03-03T01:16:16.077Z,5.48
2019-03-03T01:18:06.898Z,5.43
2019-03-03T01:20:14.214Z,5.42
2019-03-03T01:22:01.818Z,5.42
2019-03-03T01:23:47.061Z,5.39
2019-03-03T01:25:22.226Z,5.38
2019-03-03T01:26:57.304Z,5.36
2019-03-03T01:28:34.562Z,5.32
2019-03-03T01:30:15.231Z,5.33
2019-03-03T01:31:50.707Z,5.31
2019-03-03T01:33:30.167Z,5.31
2019-03-03T01:35:10.887Z,5.32
2019-03-03T01:36:46.106Z,5.26
2019-03-03T01:38:22.076Z,5.26
2019-03-03T01:39:57.717Z,5.26
2019-03-03T01:41:34.262Z,5.29
2019-03-03T01:43:09.328Z,5.28
2019-03-03T01:44:45.041Z,5.26
2019-03-03T01:46:20.343Z,5.26
2019-03-03T01:47:56.517Z,5.25
2019-03-03T01:49:31.654Z,5.24
2019-03-03T01:51:06.735Z,5.20
2019-03-03T01:52:42.999Z,5.18
2019-03-03T01:54:18.715Z,5.12
2019-03-03T01:55:53.794Z,5.14
2019-03-03T01:57:29.012Z,5.15
2019-03-03T01:59:07.065Z,5.12
2019-03-03T02:00:42.446Z,5.09
2019-03-03T02:02:22.664Z,5.10
2019-03-03T02:03:58.221Z,5.09
2019-03-03T02:05:33.341Z,5.11
2019-03-03T02:07:09.571Z,5.11
2019-03-03T02:08:45.248Z,5.14
2019-03-03T02:10:22.636Z,5.16
2019-03-03T02:11:57.848Z,5.23
2019-03-03T02:13:32.918Z,5.25
2019-03-03T02:15:08.586Z,5.24
2019-03-03T02:16:44.004Z,5.26
2019-03-03T02:18:19.165Z,5.29
2019-03-03T02:19:54.379Z,5.32
2019-03-03T02:21:29.629Z,5.34
2019-03-03T02:23:04.785Z,5.35
2019-03-03T02:24:40.113Z,5.36
2019-03-03T02:26:15.361Z,5.39
2019-03-03T02:27:50.905Z,5.45
2019-03-03T02:29:25.997Z,5.44
2019-03-03T02:31:01.167Z,5.44
2019-03-03T02:32:37.862Z,5.44
2019-03-03T02:34:15.920Z,5.41
2019-03-03T02:35:51.123Z,5.46
2019-03-03T02:37:26.257Z,5.43
2019-03-03T02:39:01.321Z,5.43
2019-03-03T02:40:36.879Z,5.42
2019-03-03T02:42:12.017Z,5.40
2019-03-03T02:43:47.576Z,5.39
2019-03-03T02:45:22.764Z,5.39
2019-03-03T02:46:57.982Z,5.37
2019-03-03T02:48:36.369Z,5.38
2019-03-03T02:50:12.545Z,5.36
2019-03-03T02:51:47.972Z,5.38
2019-03-03T02:53:23.646Z,5.35
2019-03-03T02:54:58.964Z,5.29
2019-03-03T02:56:34.779Z,5.24
2019-03-03T02:58:09.949Z,5.23
2019-03-03T02:59:45.464Z,5.15
2019-03-03T03:01:27.864Z,5.15
2019-03-03T03:03:03.422Z,5.14
2019-03-03T03:04:39.120Z,5.09
2019-03-03T03:06:42.130Z,5.06
2019-03-03T03:08:24.276Z,5.02
2019-03-03T03:10:18.840Z,5.02
2019-03-03T03:12:11.873Z,5.07
2019-03-03T03:14:05.223Z,5.11
2019-03-03T03:15:48.849Z,5.13
2019-03-03T03:17:57.631Z,5.18
2019-03-03T03:19:43.615Z,5.21
2019-03-03T03:21:45.851Z,5.23
2019-03-03T03:23:33.583Z,5.24
2019-03-03T03:25:17.177Z,5.28
2019-03-03T03:27:11.440Z,5.32
2019-03-03T03:29:05.924Z,5.32
2019-03-03T03:31:15.165Z,5.34
2019-03-03T03:33:21.571Z,5.35
2019-03-03T03:35:01.207Z,5.35
2019-03-03T03:36:53.515Z,5.38
2019-03-03T03:38:40.188Z,5.40
2019-03-03T03:40:35.542Z,5.42
2019-03-03T03:42:35.587Z,5.43
2019-03-03T03:44:29.827Z,5.47
2019-03-03T03:46:22.016Z,5.46
2019-03-03T03:48:04.306Z,5.47
2019-03-03T03:50:04.351Z,5.47
2019-03-03T03:51:50.026Z,5.49
2019-03-03T03:53:43.823Z,5.53
2019-03-03T03:55:34.820Z,5.53
2019-03-03T03:57:31.507Z,5.52
2019-03-03T03:59:19.787Z,5.55
2019-03-03T04:01:13.683Z,5.56
2019-03-03T04:03:06.249Z,5.57
2019-03-03T04:05:02.843Z,5.57
2019-03-03T04:06:55.372Z,5.58
2019-03-03T04:08:52.455Z,5.57
2019-03-03T04:10:40.169Z,5.61
2019-03-03T04:12:43.458Z,5.61
2019-03-03T04:14:32.179Z,5.62
2019-03-03T04:16:19.067Z,5.63
2019-03-03T04:18:07.975Z,5.60
2019-03-03T04:19:59.390Z,5.65
2019-03-03T04:21:50.373Z,5.64
2019-03-03T04:23:42.431Z,5.66
2019-03-03T04:25:37.668Z,5.68
2019-03-03T04:27:43.619Z,5.67
2019-03-03T04:29:37.963Z,5.67
2019-03-03T04:31:33.281Z,5.68
2019-03-03T04:33:23.051Z,5.72
2019-03-03T04:35:04.365Z,5.72
2019-03-03T04:37:01.963Z,5.73
2019-03-03T04:38:45.698Z,5.72
2019-03-03T04:40:39.600Z,5.74
2019-03-03T04:42:31.180Z,5.76
2019-03-03T04:44:28.099Z,5.76
2019-03-03T04:46:09.667Z,5.75
2019-03-03T04:47:56.798Z,5.79
2019-03-03T04:49:59.507Z,5.80
2019-03-03T04:51:51.861Z,5.79
2019-03-03T04:53:58.167Z,5.80
2019-03-03T04:55:44.347Z,5.82
2019-03-03T04:57:36.623Z,5.82
2019-03-03T04:59:30.487Z,5.84
2019-03-03T05:01:43.299Z,5.84
2019-03-03T05:03:49.732Z,5.88
2019-03-03T05:05:32.483Z,5.85
2019-03-03T05:07:35.536Z,5.85
2019-03-03T05:09:28.600Z,5.87
2019-03-03T05:11:20.713Z,5.88
2019-03-03T05:13:00.697Z,5.88
2019-03-03T05:14:38.962Z,5.91
2019-03-03T05:16:22.406Z,5.92
2019-03-03T05:18:07.287Z,5.88
2019-03-03T05:19:59.581Z,5.92
2019-03-03T05:21:35.250Z,5.88
2019-03-03T05:23:10.356Z,5.91
2019-03-03T05:24:45.479Z,5.92
2019-03-03T05:26:20.656Z,5.91
2019-03-03T05:27:55.874Z,5.96
2019-03-03T05:29:30.987Z,5.92
2019-03-03T05:31:06.766Z,5.91
2019-03-03T05:32:41.863Z,5.92
2019-03-03T05:34:17.017Z,5.95
2019-03-03T05:35:52.446Z,5.96
2019-03-03T05:37:28.089Z,5.95
2019-03-03T05:39:04.600Z,5.95
2019-03-03T05:40:39.950Z,5.96
2019-03-03T05:42:15.083Z,5.96
2019-03-03T05:43:50.162Z,5.95
2019-03-03T05:45:25.677Z,5.95
2019-03-03T05:47:01.071Z,5.94
2019-03-03T05:48:36.483Z,5.95
2019-03-03T05:50:11.589Z,5.99
2019-03-03T05:51:47.084Z,5.98
2019-03-03T05:53:22.534Z,5.97
2019-03-03T05:54:59.365Z,6.00
2019-03-03T05:56:34.584Z,6.00
2019-03-03T05:58:09.806Z,5.97
2019-03-03T05:59:45.257Z,5.99
2019-03-03T06:01:20.691Z,5.98
2019-03-03T06:02:56.881Z,6.00
2019-03-03T06:04:31.987Z,5.96
2019-03-03T06:06:10.021Z,5.99
2019-03-03T06:07:47.710Z,6.07
2019-03-03T06:09:25.601Z,6.02
2019-03-03T06:11:02.415Z,5.99
2019-03-03T06:12:37.583Z,6.10
2019-03-03T06:14:14.510Z,6.07
2019-03-03T06:15:50.241Z,6.06
2019-03-03T06:17:26.016Z,6.05
2019-03-03T06:19:01.263Z,6.05
2019-03-03T06:20:36.715Z,6.03
2019-03-03T06:22:11.841Z,6.06
2019-03-03T06:23:47.290Z,6.09
2019-03-03T06:25:22.764Z,6.06
2019-03-03T06:27:01.013Z,6.06
2019-03-03T06:28:36.204Z,6.08
2019-03-03T06:30:14.010Z,6.07
2019-03-03T06:31:49.042Z,6.05
2019-03-03T06:33:24.429Z,6.06
2019-03-03T06:34:59.532Z,6.02
2019-03-03T06:36:37.199Z,6.05
2019-03-03T06:38:12.325Z,6.08
2019-03-03T06:39:47.523Z,6.08
2019-03-03T06:41:22.904Z,6.09
2019-03-03T06:42:58.017Z,6.06
2019-03-03T06:44:33.423Z,6.08
2019-03-03T06:46:08.455Z,6.09
2019-03-03T06:47:44.324Z,6.15
2019-03-03T06:49:20.547Z,6.13
2019-03-03T06:50:57.878Z,6.15
2019-03-03T06:52:33.019Z,6.14
2019-03-03T06:54:08.082Z,6.15
2019-03-03T06:55:43.122Z,6.14
2019-03-03T06:57:18.570Z,6.14
2019-03-03T06:58:53.671Z,6.17
2019-03-03T07:00:28.799Z,6.20
2019-03-03T07:02:05.310Z,6.19
2019-03-03T07:03:41.388Z,6.20
2019-03-03T07:05:21.408Z,6.18
2019-03-03T07:06:57.753Z,6.24
2019-03-03T07:08:36.486Z,6.22
2019-03-03T07:10:20.393Z,6.22
2019-03-03T07:11:55.483Z,6.22
2019-03-03T07:13:32.290Z,6.24
2019-03-03T07:15:08.649Z,6.29
2019-03-03T07:16:43.919Z,6.29
2019-03-03T07:18:19.551Z,6.34
2019-03-03T07:19:56.014Z,6.33
2019-03-03T07:21:31.310Z,6.24
2019-03-03T07:23:08.818Z,6.26
2019-03-03T07:24:48.182Z,6.30
2019-03-03T07:26:28.105Z,6.35
2019-03-03T07:28:11.322Z,6.35
2019-03-03T07:29:48.504Z,6.32
2019-03-03T07:31:31.328Z,6.33
2019-03-03T07:33:24.401Z,6.33
2019-03-03T07:35:03.773Z,6.31
2019-03-03T07:36:38.857Z,6.29
2019-03-03T07:38:14.485Z,6.28
2019-03-03T07:39:50.140Z,6.25
2019-03-03T07:41:25.464Z,6.29
2019-03-03T07:43:00.650Z,6.30
2019-03-03T07:44:35.787Z,6.28
2019-03-03T07:46:11.203Z,6.27
2019-03-03T07:47:46.568Z,6.28
2019-03-03T07:49:22.019Z,6.26
2019-03-03T07:50:57.831Z,6.28
2019-03-03T07:52:33.086Z,6.25
2019-03-03T07:54:11.281Z,6.29
2019-03-03T07:55:47.440Z,6.33
2019-03-03T07:57:25.951Z,6.34
2019-03-03T07:59:01.045Z,6.32
2019-03-03T08:00:38.417Z,6.36
2019-03-03T08:02:14.055Z,6.29
2019-03-03T08:03:51.933Z,6.29
2019-03-03T08:05:27.189Z,6.32
2019-03-03T08:07:02.270Z,6.31
2019-03-03T08:08:37.452Z,6.31
2019-03-03T08:10:13.507Z,6.30
2019-03-03T08:11:51.618Z,6.34
2019-03-03T08:13:27.366Z,6.37
2019-03-03T08:15:08.324Z,6.39
2019-03-03T08:16:49.231Z,6.35
2019-03-03T08:18:30.887Z,6.36
2019-03-03T08:20:10.730Z,6.36
2019-03-03T08:22:07.717Z,6.39
2019-03-03T08:23:40.995Z,6.42
2019-03-03T08:25:27.799Z,6.52
2019-03-03T08:27:07.755Z,6.41
2019-03-03T08:28:45.188Z,6.44
2019-03-03T08:30:25.354Z,6.43
2019-03-03T08:32:01.380Z,6.44
2019-03-03T08:33:43.431Z,6.44
2019-03-03T08:35:26.128Z,6.53
2019-03-03T08:37:03.569Z,6.53
2019-03-03T08:38:39.623Z,6.55
2019-03-03T08:40:16.997Z,6.47
2019-03-03T08:42:16.063Z,6.54
2019-03-03T08:44:13.558Z,6.53
2019-03-03T08:46:12.003Z,6.55
2019-03-03T08:48:09.054Z,6.52
2019-03-03T08:50:02.873Z,6.46
2019-03-03T08:52:07.662Z,6.52
2019-03-03T08:54:19.728Z,6.51
2019-03-03T08:56:26.627Z,6.51
2019-03-03T08:58:20.134Z,6.55
2019-03-03T09:00:27.640Z,6.51
2019-03-03T09:02:17.008Z,6.50
2019-03-03T09:04:09.601Z,6.47
2019-03-03T09:06:06.927Z,6.49
2019-03-03T09:08:09.292Z,6.53
2019-03-03T09:10:02.391Z,6.50
2019-03-03T09:12:15.817Z,6.50
2019-03-03T09:14:08.893Z,6.48
2019-03-03T09:16:06.407Z,6.47
2019-03-03T09:18:09.967Z,6.51
2019-03-03T09:20:11.948Z,6.56
2019-03-03T09:22:15.045Z,6.56
2019-03-03T09:24:15.484Z,6.57
2019-03-03T09:28:55.808Z,6.63
2019-03-03T09:31:03.604Z,6.62
2019-03-03T09:33:06.377Z,6.65
2019-03-03T09:35:14.652Z,6.73
2019-03-03T09:37:17.447Z,6.71
2019-03-03T09:39:12.146Z,6.69
2019-03-03T09:40:55.505Z,6.73
2019-03-03T09:43:07.629Z,6.72
2019-03-03T09:45:08.193Z,6.71
2019-03-03T09:47:11.246Z,6.79
2019-03-03T09:49:04.094Z,6.86
2019-03-03T09:51:00.253Z,6.88
2019-03-03T09:53:02.713Z,6.92
2019-03-03T09:54:50.459Z,6.98
2019-03-03T09:56:44.676Z,6.94
2019-03-03T09:58:43.421Z,6.93
2019-03-03T10:00:48.938Z,7.01
2019-03-03T10:02:56.255Z,7.00
2019-03-03T10:04:53.002Z,6.99
2019-03-03T10:06:57.753Z,6.96
2019-03-03T10:09:05.263Z,6.98
2019-03-03T10:11:00.187Z,7.00
2019-03-03T10:13:09.140Z,7.01
2019-03-03T10:14:53.820Z,7.10
2019-03-03T10:16:52.787Z,7.11
2019-03-03T10:18:46.782Z,7.09
2019-03-03T10:20:59.064Z,7.12
2019-03-03T10:22:50.361Z,7.14
2019-03-03T10:24:56.544Z,7.07
2019-03-03T10:26:48.003Z,7.05
2019-03-03T10:28:53.002Z,7.09
2019-03-03T10:30:59.270Z,7.06
2019-03-03T10:32:59.747Z,7.13
2019-03-03T10:34:52.342Z,7.19
2019-03-03T10:36:49.247Z,7.12
2019-03-03T10:39:06.992Z,7.08
2019-03-03T10:41:19.149Z,7.12
2019-03-03T10:43:18.890Z,7.11
2019-03-03T10:45:18.617Z,7.10
2019-03-03T10:47:12.439Z,7.10
2019-03-03T10:49:04.852Z,7.19
2019-03-03T10:50:57.710Z,7.14
2019-03-03T10:52:55.445Z,7.17
2019-03-03T10:54:53.822Z,7.22
2019-03-03T10:56:40.225Z,7.18
2019-03-03T10:58:42.940Z,7.16
2019-03-03T11:00:41.834Z,7.23
2019-03-03T11:02:37.832Z,7.25
2019-03-03T11:04:40.778Z,7.28
2019-03-03T11:06:33.955Z,7.23
2019-03-03T11:08:19.041Z,7.30
2019-03-03T11:10:12.913Z,7.38
2019-03-03T11:12:06.835Z,7.43
2019-03-03T11:14:02.573Z,7.33
2019-03-03T11:16:05.010Z,7.31
2019-03-03T11:18:02.823Z,7.31
2019-03-03T11:20:08.160Z,7.30
2019-03-03T11:22:08.780Z,7.25
2019-03-03T11:23:56.488Z,7.28
2019-03-03T11:25:43.336Z,7.28
2019-03-03T11:27:40.218Z,7.27
2019-03-03T11:29:36.457Z,7.33
2019-03-03T11:31:21.925Z,7.34
2019-03-03T11:33:27.600Z,7.33
2019-03-03T11:35:33.831Z,7.44
2019-03-03T11:37:20.667Z,7.42
2019-03-03T11:39:28.352Z,7.41
2019-03-03T11:41:22.133Z,7.44
2019-03-03T11:43:15.378Z,7.43
2019-03-03T11:45:15.552Z,7.51
2019-03-03T11:47:25.715Z,7.47
2019-03-03T11:49:23.691Z,7.43
2019-03-03T11:51:08.771Z,7.43
2019-03-03T11:53:18.838Z,7.44
2019-03-03T11:55:14.288Z,7.49
2019-03-03T11:56:59.703Z,7.50
2019-03-03T11:59:03.631Z,7.50
2019-03-03T12:01:16.788Z,7.54
2019-03-03T12:03:19.189Z,7.47
2019-03-03T12:05:29.808Z,7.59
2019-03-03T12:07:47.417Z,7.57
2019-03-03T12:09:52.464Z,7.51
2019-03-03T12:11:46.379Z,7.57
2019-03-03T12:13:47.153Z,7.61
2019-03-03T12:15:30.233Z,7.57
2019-03-03T12:17:27.598Z,7.59
2019-03-03T12:19:22.179Z,7.59
2019-03-03T12:21:05.234Z,7.62
2019-03-03T12:22:58.035Z,7.58
2019-03-03T12:24:51.191Z,7.59
2019-03-03T12:26:54.443Z,7.59
2019-03-03T12:29:01.212Z,7.61
2019-03-03T12:31:09.246Z,7.59
2019-03-03T12:33:12.252Z,7.53
2019-03-03T12:35:21.202Z,7.54
2019-03-03T12:37:16.254Z,7.54
2019-03-03T12:39:10.234Z,7.63
2019-03-03T12:41:11.314Z,7.59
2019-03-03T12:43:11.504Z,7.62
2019-03-03T12:45:18.539Z,7.62
2019-03-03T12:47:28.509Z,7.61
2019-03-03T12:49:34.416Z,7.66
2019-03-03T12:51:45.261Z,7.66
2019-03-03T12:53:34.981Z,7.68
2019-03-03T12:55:36.510Z,7.67
2019-03-03T12:57:23.376Z,7.68
2019-03-03T12:59:20.323Z,7.60
2019-03-03T13:01:19.698Z,7.65
2019-03-03T13:03:30.594Z,7.66
2019-03-03T13:05:23.231Z,7.68
2019-03-03T13:07:18.910Z,7.64
2019-03-03T13:09:21.785Z,7.66
2019-03-03T13:11:19.121Z,7.69
2019-03-03T13:13:10.355Z,7.68
2019-03-03T13:15:17.750Z,7.66
2019-03-03T13:17:35.495Z,7.61
2019-03-03T13:19:27.763Z,7.59
2019-03-03T13:21:35.553Z,7.59
2019-03-03T13:23:32.435Z,7.59
2019-03-03T13:25:29.228Z,7.60
2019-03-03T13:27:27.937Z,7.58
2019-03-03T13:29:27.356Z,7.69
2019-03-03T13:31:28.308Z,7.70
2019-03-03T13:33:21.017Z,7.65
2019-03-03T13:35:11.265Z,7.66
2019-03-03T13:37:08.868Z,7.73
2019-03-03T13:39:15.348Z,7.69
2019-03-03T13:41:16.557Z,7.72
2019-03-03T13:43:00.380Z,7.68
2019-03-03T13:44:37.787Z,7.64
2019-03-03T13:46:13.498Z,7.68
2019-03-03T13:47:52.375Z,7.65
2019-03-03T13:49:31.082Z,7.68
2019-03-03T13:51:11.842Z,7.69
2019-03-03T13:52:47.405Z,7.70
2019-03-03T13:54:24.934Z,7.69
2019-03-03T13:56:02.138Z,7.69
2019-03-03T13:57:41.165Z,7.70
2019-03-03T13:59:18.091Z,7.69
2019-03-03T14:00:58.278Z,7.72
2019-03-03T14:02:34.452Z,7.77
2019-03-03T14:04:11.205Z,7.73
2019-03-03T14:05:46.782Z,7.79
2019-03-03T14:07:25.292Z,7.88
2019-03-03T14:09:03.324Z,7.84
2019-03-03T14:10:38.660Z,7.87
2019-03-03T14:12:16.156Z,7.81
2019-03-03T14:13:52.317Z,7.88
2019-03-03T14:15:28.824Z,7.89
2019-03-03T14:17:04.559Z,7.86
2019-03-03T14:18:39.747Z,7.81
2019-03-03T14:20:19.743Z,7.82
2019-03-03T14:21:55.764Z,7.82
2019-03-03T14:23:33.842Z,7.86
2019-03-03T14:25:09.471Z,7.82
2019-03-03T14:26:45.128Z,7.87
2019-03-03T14:28:23.917Z,7.86
2019-03-03T14:30:03.360Z,7.88
2019-03-03T14:32:09.582Z,7.90
2019-03-03T14:33:49.034Z,7.80
2019-03-03T14:35:34.404Z,7.83
2019-03-03T14:37:11.043Z,7.85
2019-03-03T14:38:46.378Z,7.86
2019-03-03T14:40:26.876Z,7.80
2019-03-03T14:42:04.655Z,7.83
2019-03-03T14:43:40.025Z,7.82
2019-03-03T14:45:18.896Z,7.82
2019-03-03T14:46:57.475Z,7.76
2019-03-03T14:48:40.913Z,7.86
2019-03-03T14:50:17.547Z,7.89
2019-03-03T14:51:53.992Z,7.84
2019-03-03T14:53:35.780Z,7.85
2019-03-03T14:55:14.151Z,7.81
2019-03-03T14:56:50.780Z,7.81
2019-03-03T14:58:28.050Z,7.86
2019-03-03T15:00:07.182Z,7.76
2019-03-03T15:01:54.003Z,7.78
2019-03-03T15:03:33.704Z,7.78
2019-03-03T15:05:12.934Z,7.76
2019-03-03T15:06:48.194Z,7.82
2019-03-03T15:08:27.396Z,7.81
2019-03-03T15:10:06.830Z,7.78
2019-03-03T15:11:50.448Z,7.78
2019-03-03T15:13:32.279Z,7.80
2019-03-03T15:15:30.847Z,7.79
2019-03-03T15:17:08.673Z,7.73
2019-03-03T15:18:48.990Z,7.78
2019-03-03T15:20:27.497Z,7.74
2019-03-03T15:22:12.451Z,7.73
2019-03-03T15:23:48.246Z,7.70
2019-03-03T15:25:35.576Z,7.71
2019-03-03T15:27:14.148Z,7.71
2019-03-03T15:28:50.668Z,7.69
2019-03-03T15:30:36.803Z,7.67
2019-03-03T15:32:20.290Z,7.68
2019-03-03T15:33:55.858Z,7.69
2019-03-03T15:35:36.588Z,7.73
2019-03-03T15:37:16.981Z,7.71
2019-03-03T15:39:03.227Z,7.67
2019-03-03T15:40:52.742Z,7.67
2019-03-03T15:42:33.843Z,7.70
2019-03-03T15:44:09.720Z,7.72
2019-03-03T15:45:51.091Z,7.66
2019-03-03T15:47:27.297Z,7.67
2019-03-03T15:49:06.139Z,7.68
2019-03-03T15:50:41.716Z,7.68
2019-03-03T15:52:24.381Z,7.69
2019-03-03T15:54:04.532Z,7.66
2019-03-03T15:55:46.949Z,7.65
2019-03-03T15:57:27.805Z,7.65
2019-03-03T15:59:05.062Z,7.70
2019-03-03T16:00:41.421Z,7.66
2019-03-03T16:02:21.440Z,7.68
2019-03-03T16:04:04.368Z,7.68
2019-03-03T16:05:44.630Z,7.66
2019-03-03T16:07:23.838Z,7.66
2019-03-03T16:09:05.498Z,7.67
2019-03-03T16:10:52.428Z,7.66
2019-03-03T16:12:30.268Z,7.64
2019-03-03T16:14:05.523Z,7.65
2019-03-03T16:15:42.620Z,7.65
2019-03-03T16:17:27.459Z,7.71
2019-03-03T16:19:13.070Z,7.73
2019-03-03T16:20:49.384Z,7.72
2019-03-03T16:22:38.497Z,7.65
2019-03-03T16:24:16.837Z,7.68
2019-03-03T16:28:01.825Z,7.69
2019-03-03T16:29:45.982Z,7.72
2019-03-03T16:31:22.830Z,7.72
2019-03-03T16:32:59.268Z,7.71
2019-03-03T16:34:34.891Z,7.69
2019-03-03T16:36:10.500Z,7.70
2019-03-03T16:37:46.968Z,7.68
2019-03-03T16:39:22.316Z,7.70
2019-03-03T16:40:58.732Z,7.70
2019-03-03T16:42:38.222Z,7.73
2019-03-03T16:44:13.483Z,7.73
2019-03-03T16:45:53.915Z,7.67
2019-03-03T16:47:29.162Z,7.70
2019-03-03T16:49:14.382Z,7.68
2019-03-03T16:50:49.827Z,7.68
2019-03-03T16:52:32.829Z,7.65
2019-03-03T16:54:14.863Z,7.73
2019-03-03T16:55:52.397Z,7.68
2019-03-03T16:57:33.039Z,7.68
2019-03-03T16:59:11.149Z,7.66
2019-03-03T17:00:48.496Z,7.64
2019-03-03T17:02:25.725Z,7.70
2019-03-03T17:04:05.408Z,7.69
2019-03-03T17:05:41.364Z,7.64
2019-03-03T17:07:23.799Z,7.59
2019-03-03T17:09:01.335Z,7.64
2019-03-03T17:10:40.759Z,7.64
2019-03-03T17:12:20.538Z,7.59
2019-03-03T17:14:02.091Z,7.61
2019-03-03T17:15:39.217Z,7.60
2019-03-03T17:17:19.744Z,7.57
2019-03-03T17:19:12.297Z,7.57
2019-03-03T17:20:56.532Z,7.57
2019-03-03T17:22:32.192Z,7.55
2019-03-03T17:24:23.800Z,7.53
2019-03-03T17:25:59.731Z,7.53
2019-03-03T17:27:38.715Z,7.57
2019-03-03T17:29:18.093Z,7.57
2019-03-03T17:30:56.231Z,7.60
2019-03-03T17:32:33.345Z,7.57
2019-03-03T17:34:13.310Z,7.57
2019-03-03T17:35:56.833Z,7.59
2019-03-03T17:37:34.887Z,7.59
2019-03-03T17:39:10.669Z,7.61
2019-03-03T17:40:46.689Z,7.58
2019-03-03T17:42:25.798Z,7.61
2019-03-03T17:44:02.827Z,7.66
2019-03-03T17:45:39.197Z,7.65
2019-03-03T17:47:16.328Z,7.65
2019-03-03T17:49:03.489Z,7.62
2019-03-03T17:50:41.581Z,7.63
2019-03-03T17:52:40.125Z,7.61
2019-03-03T17:54:25.238Z,7.58
2019-03-03T17:56:14.653Z,7.58
2019-03-03T17:57:56.572Z,7.58
2019-03-03T17:59:36.566Z,7.60
2019-03-03T18:01:21.192Z,7.61
2019-03-03T18:03:20.319Z,7.61
2019-03-03T18:05:03.082Z,7.63
2019-03-03T18:06:43.897Z,7.61
2019-03-03T18:08:23.297Z,7.60
2019-03-03T18:10:14.345Z,7.61
2019-03-03T18:11:52.201Z,7.64
2019-03-03T18:13:32.682Z,7.62
2019-03-03T18:15:09.493Z,7.62
2019-03-03T18:16:49.867Z,7.62
2019-03-03T18:18:28.644Z,7.62
2019-03-03T18:20:10.212Z,7.61
2019-03-03T18:21:51.062Z,7.62
2019-03-03T18:23:31.701Z,7.63
2019-03-03T18:25:15.892Z,7.67
2019-03-03T18:26:52.559Z,7.61
2019-03-03T18:28:30.169Z,7.66
2019-03-03T18:30:19.268Z,7.66
2019-03-03T18:32:06.634Z,7.63
2019-03-03T18:33:41.768Z,7.66
2019-03-03T18:35:21.296Z,7.61
2019-03-03T18:37:00.983Z,7.61
2019-03-03T18:38:37.907Z,7.61
2019-03-03T18:40:13.572Z,7.63
2019-03-03T18:41:53.196Z,7.62
2019-03-03T18:43:30.426Z,7.56
2019-03-03T18:45:09.399Z,7.57
2019-03-03T18:46:50.050Z,7.53
2019-03-03T18:48:26.504Z,7.58
2019-03-03T18:50:05.037Z,7.51
2019-03-03T18:51:40.338Z,7.54
2019-03-03T18:53:21.862Z,7.55
2019-03-03T18:54:59.480Z,7.55
2019-03-03T18:56:34.645Z,7.55
2019-03-03T18:58:14.926Z,7.50
2019-03-03T18:59:51.422Z,7.54
2019-03-03T19:01:26.584Z,7.52
2019-03-03T19:03:05.304Z,7.55
2019-03-03T19:04:43.925Z,7.53
2019-03-03T19:06:19.677Z,7.52
2019-03-03T19:07:59.369Z,7.49
2019-03-03T19:09:34.714Z,7.51
2019-03-03T19:11:10.801Z,7.48
2019-03-03T19:12:49.933Z,7.57
2019-03-03T19:14:28.329Z,7.55
2019-03-03T19:16:04.155Z,7.52
2019-03-03T19:17:50.456Z,7.51
2019-03-03T19:19:24.053Z,7.49
2019-03-03T19:21:06.276Z,7.51
2019-03-03T19:22:43.594Z,7.49
2019-03-03T19:24:27.398Z,7.50
2019-03-03T19:26:13.342Z,7.45
2019-03-03T19:29:52.702Z,7.52
2019-03-03T19:31:33.297Z,7.49
2019-03-03T19:33:25.834Z,7.46
2019-03-03T19:35:06.308Z,7.47
2019-03-03T19:36:47.162Z,7.49
2019-03-03T19:38:29.785Z,7.50
2019-03-03T19:40:09.151Z,7.49
2019-03-03T19:41:46.697Z,7.51
2019-03-03T19:43:28.154Z,7.52
2019-03-03T19:45:08.712Z,7.50
2019-03-03T19:46:51.539Z,7.49
2019-03-03T19:48:35.924Z,7.49
2019-03-03T19:50:12.509Z,7.49
2019-03-03T19:51:51.472Z,7.49
2019-03-03T19:53:42.919Z,7.51
2019-03-03T19:55:26.853Z,7.53
2019-03-03T19:57:06.471Z,7.53
2019-03-03T19:58:54.055Z,7.50
2019-03-03T20:00:38.569Z,7.49
2019-03-03T20:02:12.825Z,7.51
2019-03-03T20:03:52.790Z,7.49
2019-03-03T20:05:32.756Z,7.52
2019-03-03T20:07:07.341Z,7.54
2019-03-03T20:08:42.565Z,7.54
2019-03-03T20:10:27.204Z,7.56
2019-03-03T20:12:05.969Z,7.53
2019-03-03T20:13:44.618Z,7.51
2019-03-03T20:15:24.969Z,7.55
2019-03-03T20:17:04.318Z,7.52
2019-03-03T20:18:55.639Z,7.50
2019-03-03T20:20:37.063Z,7.51
2019-03-03T20:22:20.828Z,7.54
2019-03-03T20:23:55.593Z,7.56
2019-03-03T20:25:34.179Z,7.52
2019-03-03T20:27:12.524Z,7.50
2019-03-03T20:28:48.136Z,7.54
2019-03-03T20:30:30.006Z,7.53
2019-03-03T20:32:05.498Z,7.55
2019-03-03T20:33:46.439Z,7.49
2019-03-03T20:35:21.732Z,7.50
2019-03-03T20:37:01.279Z,7.47
2019-03-03T20:38:41.078Z,7.50
2019-03-03T20:40:22.715Z,7.48
2019-03-03T20:42:03.974Z,7.45
2019-03-03T20:43:40.059Z,7.46
2019-03-03T20:45:26.267Z,7.49
2019-03-03T20:47:05.245Z,7.48
2019-03-03T20:48:48.227Z,7.49
2019-03-03T20:50:30.850Z,7.48
2019-03-03T20:52:22.575Z,7.46
2019-03-03T20:54:00.622Z,7.47
2019-03-03T20:55:43.485Z,7.49
2019-03-03T20:57:23.888Z,7.51
2019-03-03T20:59:10.373Z,7.57
2019-03-03T21:00:55.478Z,7.52
2019-03-03T21:02:31.634Z,7.49
2019-03-03T21:04:10.534Z,7.50
2019-03-03T21:05:46.151Z,7.47
2019-03-03T21:07:26.198Z,7.50
2019-03-03T21:09:00.063Z,7.53
2019-03-03T21:10:41.375Z,7.54
2019-03-03T21:12:16.658Z,7.53
2019-03-03T21:13:52.965Z,7.54
2019-03-03T21:15:32.609Z,7.53
2019-03-03T21:17:10.083Z,7.54
2019-03-03T21:18:45.656Z,7.57
2019-03-03T21:20:25.355Z,7.57
2019-03-03T21:22:01.704Z,7.60
2019-03-03T21:23:39.068Z,7.61
2019-03-03T21:25:20.247Z,7.64
2019-03-03T21:27:01.729Z,7.68
2019-03-03T21:28:43.119Z,7.67
2019-03-03T21:30:23.048Z,7.68
2019-03-03T21:32:00.521Z,7.73
2019-03-03T21:33:38.021Z,7.77
2019-03-03T21:35:14.046Z,7.77
2019-03-03T21:36:49.906Z,7.80
2019-03-03T21:38:28.960Z,7.79
2019-03-03T21:40:04.216Z,7.84
2019-03-03T21:41:45.722Z,7.82
2019-03-03T21:43:29.531Z,7.82
2019-03-03T21:45:14.106Z,7.84
2019-03-03T21:46:51.772Z,7.85
2019-03-03T21:48:27.393Z,7.88
2019-03-03T21:50:07.849Z,7.90
2019-03-03T21:51:55.045Z,7.90
2019-03-03T21:53:30.685Z,7.92
2019-03-03T21:55:07.299Z,7.94
2019-03-03T21:56:49.899Z,7.96
2019-03-03T21:58:32.194Z,7.97
2019-03-03T22:00:25.727Z,7.99
2019-03-03T22:02:06.227Z,7.99
2019-03-03T22:03:59.126Z,8.04
2019-03-03T22:05:40.630Z,8.04
2019-03-03T22:07:19.912Z,8.04
2019-03-03T22:08:56.013Z,8.05
2019-03-03T22:10:33.025Z,8.04
2019-03-03T22:12:11.081Z,8.08
2019-03-03T22:13:49.104Z,8.07
2019-03-03T22:15:28.224Z,8.07
2019-03-03T22:17:03.724Z,8.12
2019-03-03T22:18:47.048Z,8.14
2019-03-03T22:20:22.893Z,8.10
2019-03-03T22:21:58.804Z,8.09
2019-03-03T22:23:41.928Z,8.11
2019-03-03T22:25:17.483Z,8.17
2019-03-03T22:26:57.070Z,8.15
2019-03-03T22:28:32.941Z,8.16
2019-03-03T22:30:09.429Z,8.13
2019-03-03T22:31:46.264Z,8.13
2019-03-03T22:33:24.548Z,8.13
2019-03-03T22:35:05.491Z,8.14
2019-03-03T22:36:46.481Z,8.14
2019-03-03T22:38:31.517Z,8.16
2019-03-03T22:40:11.483Z,8.17
2019-03-03T22:41:49.709Z,8.18
2019-03-03T22:43:28.690Z,8.20
2019-03-03T22:45:16.672Z,8.20
2019-03-03T22:46:53.417Z,8.25
2019-03-03T22:48:29.911Z,8.20
2019-03-03T22:50:06.317Z,8.20
2019-03-03T22:51:42.321Z,8.19
2019-03-03T22:53:22.069Z,8.20
2019-03-03T22:55:04.446Z,8.21
2019-03-03T22:56:46.177Z,8.21
2019-03-03T22:58:32.486Z,8.20
2019-03-03T23:00:45.147Z,8.22
2019-03-03T23:02:27.230Z,8.22
2019-03-03T23:06:54.127Z,8.25
2019-03-03T23:08:46.356Z,8.26
2019-03-03T23:11:03.974Z,8.30
2019-03-03T23:13:14.369Z,8.27
2019-03-03T23:15:05.479Z,8.21
2019-03-03T23:17:07.003Z,8.22
2019-03-03T23:19:19.616Z,8.22
2019-03-03T23:21:23.488Z,8.22
2019-03-03T23:23:50.848Z,8.20